Time;durP1;ratioP1;P1;durP2;ratioP2;P2;SDS_P1;SDS_P2;PMS_P1;PMS_P2;Temp;Humidity;BMP_temperature;BMP_pressure;BME280_temperature;BME280_humidity;BME280_pressure;Samples;Min_cycle;Max_cycle;Signal;HPM_P1;HPM_P2
2021/10/31 00:01:41;;;;;;;12.82;5.15;;;;;;;10.40;93.61;102029.63;1809788;77;20963;-63
2021/10/31 00:04:07;;;;;;;10.48;4.90;;;;;;;10.46;93.21;102018.84;1816513;77;21184;-61
2021/10/31 00:06:35;;;;;;;12.68;5.12;;;;;;;10.41;92.90;102018.03;1822855;77;21667;-55
2021/10/31 00:09:01;;;;;;;9.85;5.15;;;;;;;10.41;93.12;102011.33;1816456;77;20952;-55
2021/10/31 00:11:28;;;;;;;9.80;5.08;;;;;;;10.43;92.94;102013.09;1815909;77;21064;-57
2021/10/31 00:13:54;;;;;;;10.55;5.40;;;;;;;10.40;92.88;102013.14;1820782;77;21496;-56
2021/10/31 00:16:21;;;;;;;10.13;5.78;;;;;;;10.38;92.88;102014.03;1819200;77;21113;-57
2021/10/31 00:18:48;;;;;;;10.40;4.80;;;;;;;10.35;92.79;102008.71;1817373;77;21384;-56
2021/10/31 00:21:15;;;;;;;9.80;5.30;;;;;;;10.33;93.23;102003.36;1816536;77;20988;-56
2021/10/31 00:23:41;;;;;;;10.00;5.20;;;;;;;10.35;93.19;102008.71;1821376;77;21022;-57
2021/10/31 00:26:08;;;;;;;12.85;5.55;;;;;;;10.31;93.29;101999.81;1820273;77;20972;-57
2021/10/31 00:28:34;;;;;;;10.73;4.67;;;;;;;10.29;93.41;102003.88;1816599;77;21708;-55
2021/10/31 00:31:01;;;;;;;14.58;5.40;;;;;;;10.30;93.48;102006.98;1816975;77;21051;-56
2021/10/31 00:33:28;;;;;;;10.53;5.78;;;;;;;10.28;93.36;102002.55;1818327;77;21055;-56
2021/10/31 00:35:54;;;;;;;12.82;5.35;;;;;;;10.26;93.48;102003.89;1820217;77;21457;-55
2021/10/31 00:38:21;;;;;;;10.00;5.20;;;;;;;10.24;93.58;102000.81;1819279;77;20992;-57
2021/10/31 00:40:47;;;;;;;12.10;5.30;;;;;;;10.23;93.91;101999.91;1817203;77;21103;-57
2021/10/31 00:43:14;;;;;;;12.28;5.00;;;;;;;10.27;93.94;102004.32;1822411;77;20972;-56
2021/10/31 00:45:42;;;;;;;11.05;4.95;;;;;;;10.27;93.41;102001.64;1820449;77;21453;-56
2021/10/31 00:48:09;;;;;;;10.63;5.03;;;;;;;10.29;93.62;102009.67;1820767;77;20996;-56
2021/10/31 00:50:35;;;;;;;17.98;5.78;;;;;;;10.28;93.25;101996.74;1818970;77;20998;-55
2021/10/31 00:53:03;;;;;;;12.65;5.95;;;;;;;10.26;93.07;102001.20;1819505;77;21118;-55
2021/10/31 00:55:30;;;;;;;12.23;5.75;;;;;;;10.26;93.15;101999.00;1824268;77;21059;-56
2021/10/31 00:57:57;;;;;;;8.93;5.20;;;;;;;10.27;93.13;102000.77;1819155;77;21078;-56
2021/10/31 01:00:25;;;;;;;10.15;5.40;;;;;;;10.25;93.37;101986.03;1818236;77;21504;-56
2021/10/31 01:02:51;;;;;;;14.55;6.12;;;;;;;10.25;93.51;101997.23;1821173;77;21467;-55
2021/10/31 01:05:25;;;;;;;14.55;5.62;;;;;;;10.24;93.34;101996.33;1822448;77;21094;-56
2021/10/31 01:08:32;;;;;;;11.55;5.95;;;;;;;10.23;93.54;102000.39;1791485;78;21288;-57
2021/10/31 01:11:10;;;;;;;15.83;6.08;;;;;;;10.25;93.26;101994.55;1821255;77;21011;-57
2021/10/31 01:13:52;;;;;;;12.60;6.10;;;;;;;10.23;93.77;102006.61;1824294;77;21252;-56
2021/10/31 01:16:59;;;;;;;11.88;6.35;;;;;;;10.24;93.34;101993.64;1816518;77;20884;-56
2021/10/31 01:19:54;;;;;;;12.20;6.30;;;;;;;10.22;93.18;101990.10;1816162;77;22123;-57
2021/10/31 01:22:44;;;;;;;17.67;6.25;;;;;;;10.25;93.79;101995.89;1815560;77;20921;-57
2021/10/31 01:25:54;;;;;;;13.98;5.75;;;;;;;10.25;94.10;101994.55;1819989;77;21511;-56
2021/10/31 01:29:01;;;;;;;14.40;6.03;;;;;;;10.28;94.04;101992.72;1820287;77;21004;-57
2021/10/31 01:31:51;;;;;;;11.30;5.87;;;;;;;10.30;93.97;101982.86;1819704;77;21050;-56
2021/10/31 01:34:43;;;;;;;11.33;6.33;;;;;;;10.34;94.29;101997.55;1821524;77;21579;-58
2021/10/31 01:37:40;;;;;;;10.85;5.87;;;;;;;10.37;93.77;101973.38;1766489;78;21046;-57
2021/10/31 01:40:31;;;;;;;12.28;5.62;;;;;;;10.38;93.76;101972.47;1789552;78;20937;-56
2021/10/31 01:43:08;;;;;;;14.00;6.00;;;;;;;10.46;93.87;101963.88;1785875;77;21027;-55
2021/10/31 01:46:07;;;;;;;14.05;6.37;;;;;;;10.51;93.47;101964.72;1815825;77;21297;-58
2021/10/31 01:48:56;;;;;;;15.48;6.08;;;;;;;10.53;93.67;101958.87;1817288;77;21809;-56
2021/10/31 01:51:45;;;;;;;14.90;5.85;;;;;;;10.58;93.67;101963.70;1812998;77;21567;-57
2021/10/31 01:54:19;;;;;;;10.60;5.50;;;;;;;10.62;93.41;101959.63;1818682;77;21036;-56
2021/10/31 01:56:50;;;;;;;13.35;5.60;;;;;;;10.70;93.41;101961.72;1814621;77;21439;-57
2021/10/31 01:59:27;;;;;;;12.93;5.60;;;;;;;10.73;92.97;101973.77;1821726;76;20977;-56
2021/10/31 02:01:54;;;;;;;11.97;5.55;;;;;;;10.70;92.78;101957.26;1817691;77;21086;-56
2021/10/31 02:04:23;;;;;;;14.47;6.22;;;;;;;10.66;93.02;101954.64;1816293;77;21035;-57
2021/10/31 02:06:51;;;;;;;14.73;6.03;;;;;;;10.65;93.56;101955.55;1813748;77;21491;-56
2021/10/31 02:09:21;;;;;;;13.18;5.92;;;;;;;10.69;93.58;101945.20;1814455;77;20972;-56
2021/10/31 02:11:49;;;;;;;14.38;5.87;;;;;;;10.69;93.28;101950.12;1825164;77;21651;-56
2021/10/31 02:14:17;;;;;;;13.35;5.87;;;;;;;10.70;93.42;101950.99;1818480;77;21936;-56
2021/10/31 02:16:44;;;;;;;15.78;6.25;;;;;;;10.75;93.37;101944.65;1813619;77;20998;-57
2021/10/31 02:19:19;;;;;;;17.82;7.03;;;;;;;10.79;93.05;101936.55;1807182;77;21444;-57
2021/10/31 02:21:45;;;;;;;14.07;5.80;;;;;;;10.80;93.14;101941.90;1819722;77;21027;-57
2021/10/31 02:24:12;;;;;;;16.77;6.50;;;;;;;10.83;93.19;101931.11;1820737;77;21510;-56
2021/10/31 02:26:39;;;;;;;14.53;5.75;;;;;;;10.85;93.22;101940.48;1819995;77;21631;-56
2021/10/31 02:29:08;;;;;;;12.93;6.05;;;;;;;10.86;93.31;101948.49;1819680;77;21023;-56
2021/10/31 02:31:35;;;;;;;10.63;5.42;;;;;;;10.88;93.04;101933.25;1820835;77;21380;-56
2021/10/31 02:34:05;;;;;;;14.73;5.87;;;;;;;10.87;93.10;101938.19;1819277;77;20923;-56
2021/10/31 02:36:33;;;;;;;12.40;5.67;;;;;;;10.88;93.26;101937.27;1818773;77;21020;-56
2021/10/31 02:39:01;;;;;;;17.17;5.95;;;;;;;10.89;93.04;101934.15;1815335;77;21105;-57
2021/10/31 02:41:30;;;;;;;14.15;5.53;;;;;;;10.83;93.12;101925.75;1820135;77;20952;-56
2021/10/31 02:43:57;;;;;;;13.48;5.70;;;;;;;10.81;92.77;101918.19;1813607;77;21455;-55
2021/10/31 02:46:26;;;;;;;16.07;6.03;;;;;;;10.78;92.53;101930.31;1815566;77;21075;-56
2021/10/31 02:48:52;;;;;;;18.20;6.20;;;;;;;10.71;93.13;101935.33;1815270;77;21129;-56
2021/10/31 02:51:42;;;;;;;18.07;5.62;;;;;;;10.68;93.44;101931.36;1770425;79;21491;-56
2021/10/31 02:54:23;;;;;;;16.95;5.70;;;;;;;10.61;93.55;101926.58;1771982;79;21129;-62
2021/10/31 02:57:13;;;;;;;17.95;6.03;;;;;;;10.56;93.59;101927.08;1811534;77;21568;-55
2021/10/31 02:59:52;;;;;;;27.05;5.83;;;;;;;10.55;93.70;101932.92;1807623;77;22117;-63
2021/10/31 03:02:20;;;;;;;15.93;5.55;;;;;;;10.56;93.95;101937.80;1811666;77;21361;-56
2021/10/31 03:04:47;;;;;;;11.68;6.75;;;;;;;10.57;93.62;101927.07;1792904;77;21124;-56
2021/10/31 03:07:15;;;;;;;13.72;6.25;;;;;;;10.55;93.26;101925.31;1803332;77;20986;-56
2021/10/31 03:09:47;;;;;;;11.35;5.40;;;;;;;10.56;93.30;101930.66;1780149;77;21086;-56
2021/10/31 03:12:14;;;;;;;14.13;5.83;;;;;;;10.58;93.37;101932.86;1810616;77;21020;-56
2021/10/31 03:14:40;;;;;;;11.22;5.62;;;;;;;10.58;93.81;101932.86;1807489;77;21299;-55
2021/10/31 03:17:08;;;;;;;13.20;5.65;;;;;;;10.55;94.30;101924.87;1804379;77;21453;-56
2021/10/31 03:19:36;;;;;;;16.30;5.67;;;;;;;10.56;94.17;101923.95;1803127;77;21051;-56
2021/10/31 03:22:05;;;;;;;13.18;6.15;;;;;;;10.55;93.97;101920.85;1799102;77;21782;-56
2021/10/31 03:24:33;;;;;;;13.32;5.78;;;;;;;10.56;93.95;101929.33;1811132;77;21475;-56
2021/10/31 03:26:59;;;;;;;14.13;5.70;;;;;;;10.57;94.46;101924.83;1808752;77;21044;-56
2021/10/31 03:29:26;;;;;;;24.18;6.03;;;;;;;10.52;94.54;101922.25;1805805;77;21385;-56
2021/10/31 03:31:53;;;;;;;15.50;6.03;;;;;;;10.54;94.62;101919.52;1802944;77;21037;-56
2021/10/31 03:34:20;;;;;;;15.78;6.03;;;;;;;10.55;94.43;101922.63;1816020;77;20908;-56
2021/10/31 03:36:47;;;;;;;12.13;6.65;;;;;;;10.59;94.48;101923.91;1806539;77;21081;-55
2021/10/31 03:39:14;;;;;;;13.45;6.05;;;;;;;10.62;94.04;101918.96;1816605;77;21011;-57
2021/10/31 03:41:45;;;;;;;11.93;5.62;;;;;;;10.60;93.96;101918.97;1809734;77;21624;-56
2021/10/31 03:44:12;;;;;;;13.65;5.90;;;;;;;10.59;94.02;101911.84;1812818;77;21468;-55
2021/10/31 03:46:39;;;;;;;12.45;6.28;;;;;;;10.60;93.53;101928.36;1816010;77;21043;-56
2021/10/31 03:49:05;;;;;;;14.60;6.00;;;;;;;10.56;93.23;101906.53;1803119;77;21416;-56
2021/10/31 03:51:31;;;;;;;16.17;5.87;;;;;;;10.57;93.37;101923.05;1811559;77;21041;-55
2021/10/31 03:53:58;;;;;;;12.05;6.12;;;;;;;10.59;93.28;101913.62;1810349;76;21845;-56
2021/10/31 03:56:25;;;;;;;13.08;6.15;;;;;;;10.58;93.21;101912.75;1802797;77;21055;-56
2021/10/31 03:58:52;;;;;;;16.02;6.75;;;;;;;10.58;92.99;101909.17;1804344;77;21797;-56
2021/10/31 04:01:18;;;;;;;16.10;7.37;;;;;;;10.54;92.86;101908.35;1810048;77;21012;-56
2021/10/31 04:03:45;;;;;;;19.90;6.83;;;;;;;10.52;93.14;101902.57;1808771;77;21109;-55
2021/10/31 04:06:13;;;;;;;16.73;6.95;;;;;;;10.53;93.18;101900.32;1807923;77;21134;-55
2021/10/31 04:08:43;;;;;;;14.83;6.62;;;;;;;10.53;93.40;101897.20;1784870;78;21406;-56
2021/10/31 04:11:10;;;;;;;13.48;7.33;;;;;;;10.57;93.42;101908.73;1803835;77;21022;-55
2021/10/31 04:13:37;;;;;;;14.65;7.12;;;;;;;10.54;92.43;101908.35;1809436;77;21467;-56
2021/10/31 04:16:04;;;;;;;12.98;6.78;;;;;;;10.48;92.70;101907.56;1813626;77;21061;-55
2021/10/31 04:18:31;;;;;;;11.08;6.47;;;;;;;10.45;93.23;101896.42;1802324;77;21112;-56
2021/10/31 04:20:58;;;;;;;13.98;6.80;;;;;;;10.44;93.62;101898.67;1807923;77;21030;-56
2021/10/31 04:23:25;;;;;;;12.23;6.78;;;;;;;10.48;93.77;101895.02;1806314;77;20900;-56
2021/10/31 04:25:52;;;;;;;13.95;6.60;;;;;;;10.52;93.59;101899.45;1809479;77;21510;-56
2021/10/31 04:28:18;;;;;;;10.72;6.40;;;;;;;10.49;93.43;101890.09;1808037;77;20943;-56
2021/10/31 04:30:45;;;;;;;9.85;6.65;;;;;;;10.50;93.67;101884.28;1807623;77;21092;-56
2021/10/31 04:33:12;;;;;;;13.30;7.62;;;;;;;10.51;93.33;101884.27;1814314;77;21049;-56
2021/10/31 04:35:39;;;;;;;16.32;7.20;;;;;;;10.46;93.53;101883.44;1806345;77;21030;-56
2021/10/31 04:38:12;;;;;;;19.90;6.78;;;;;;;10.47;93.84;101891.91;1798263;77;21356;-56
2021/10/31 04:40:39;;;;;;;20.55;7.20;;;;;;;10.49;93.65;101882.52;1809235;77;21035;-56
2021/10/31 04:43:11;;;;;;;16.62;7.80;;;;;;;10.44;93.81;101883.48;1811058;77;21124;-57
2021/10/31 04:45:40;;;;;;;11.60;6.83;;;;;;;10.42;93.93;101878.60;1804692;77;21337;-56
2021/10/31 04:48:07;;;;;;;14.98;8.13;;;;;;;10.40;94.05;101881.77;1809020;77;21329;-57
2021/10/31 04:50:33;;;;;;;14.10;7.83;;;;;;;10.41;94.02;101882.64;1807537;77;21079;-58
2021/10/31 04:53:00;;;;;;;15.00;7.22;;;;;;;10.43;93.92;101878.13;1802523;77;21043;-54
2021/10/31 04:55:27;;;;;;;16.10;8.05;;;;;;;10.42;94.19;101869.66;1811473;77;21591;-55
2021/10/31 04:57:54;;;;;;;15.45;7.70;;;;;;;10.47;94.67;101871.80;1810041;77;21194;-56
2021/10/31 05:00:21;;;;;;;13.75;8.35;;;;;;;10.53;94.56;101871.72;1814446;77;20959;-56
2021/10/31 05:02:47;;;;;;;18.12;8.88;;;;;;;10.57;94.42;101873.44;1808085;77;21601;-56
2021/10/31 05:05:14;;;;;;;17.95;8.35;;;;;;;10.60;93.72;101872.48;1803997;77;21077;-58
2021/10/31 05:07:40;;;;;;;12.85;7.05;;;;;;;10.56;93.62;101866.30;1804237;77;21731;-57
2021/10/31 05:10:08;;;;;;;16.62;7.58;;;;;;;10.57;94.33;101875.22;1816242;77;20973;-57
2021/10/31 05:12:36;;;;;;;15.75;8.43;;;;;;;10.62;94.14;101872.47;1807404;77;21039;-56
2021/10/31 05:15:04;;;;;;;14.30;7.95;;;;;;;10.63;93.94;101868.88;1802095;77;21057;-55
2021/10/31 05:17:32;;;;;;;14.50;6.80;;;;;;;10.66;94.32;101867.47;1804005;77;21016;-57
2021/10/31 05:19:59;;;;;;;14.65;7.95;;;;;;;10.67;93.92;101873.27;1794551;77;21473;-56
2021/10/31 05:22:25;;;;;;;15.48;8.23;;;;;;;10.62;93.77;101877.83;1811322;77;21524;-56
2021/10/31 05:24:52;;;;;;;16.45;7.60;;;;;;;10.59;93.83;101882.34;1794315;77;21494;-56
2021/10/31 05:27:19;;;;;;;12.95;7.33;;;;;;;10.57;93.78;101865.39;1806499;77;21129;-55
2021/10/31 05:29:45;;;;;;;17.45;7.28;;;;;;;10.56;94.30;101866.74;1810887;77;21012;-56
2021/10/31 05:32:13;;;;;;;14.65;6.78;;;;;;;10.57;94.64;101869.41;1803513;77;21268;-55
2021/10/31 05:34:39;;;;;;;15.85;9.00;;;;;;;10.62;94.74;101871.13;1804232;77;21576;-56
2021/10/31 05:37:06;;;;;;;13.60;7.12;;;;;;;10.57;94.76;101868.07;1812461;77;21435;-56
2021/10/31 05:39:33;;;;;;;15.55;7.62;;;;;;;10.56;95.04;101856.92;1808416;77;21519;-56
2021/10/31 05:41:59;;;;;;;16.20;8.45;;;;;;;10.54;94.75;101868.13;1813370;77;21032;-56
2021/10/31 05:44:26;;;;;;;17.05;8.20;;;;;;;10.50;94.65;101867.76;1809225;77;21571;-57
2021/10/31 05:46:52;;;;;;;17.02;8.18;;;;;;;10.47;94.77;101869.12;1806816;77;21043;-56
2021/10/31 05:49:20;;;;;;;14.55;8.23;;;;;;;10.49;94.68;101887.41;1811444;77;21054;-63
2021/10/31 05:51:48;;;;;;;16.10;7.67;;;;;;;10.51;94.50;101874.89;1814524;77;21401;-62
2021/10/31 05:54:14;;;;;;;17.90;8.63;;;;;;;10.54;94.34;101869.91;1817198;77;21070;-63
2021/10/31 05:56:41;;;;;;;14.98;8.28;;;;;;;10.52;94.32;101879.34;1805979;77;21088;-56
2021/10/31 05:59:09;;;;;;;15.20;7.62;;;;;;;10.53;94.19;101866.36;1809957;77;21006;-56
2021/10/31 06:01:36;;;;;;;13.53;8.15;;;;;;;10.57;94.12;101866.73;1810136;77;21441;-63
2021/10/31 06:04:03;;;;;;;14.83;8.35;;;;;;;10.62;93.12;101876.48;1807339;77;21058;-63
2021/10/31 06:06:29;;;;;;;13.88;8.08;;;;;;;10.58;92.98;101882.34;1801419;77;21049;-56
2021/10/31 06:08:56;;;;;;;15.10;8.23;;;;;;;10.56;92.45;101878.81;1811499;77;20944;-63
2021/10/31 06:11:24;;;;;;;15.85;8.10;;;;;;;10.56;92.42;101890.44;1808840;77;20909;-63
2021/10/31 06:13:54;;;;;;;16.30;8.25;;;;;;;10.58;91.86;101887.27;1807308;77;21077;-63
2021/10/31 06:16:21;;;;;;;15.20;7.50;;;;;;;10.57;91.69;101882.83;1746814;79;21405;-63
2021/10/31 06:18:47;;;;;;;16.62;8.80;;;;;;;10.60;91.48;101892.16;1810819;77;21079;-63
2021/10/31 06:21:14;;;;;;;14.70;8.20;;;;;;;10.57;90.89;101912.32;1801844;77;21460;-64
2021/10/31 06:23:41;;;;;;;16.65;8.45;;;;;;;10.51;90.58;101897.69;1810434;77;21058;-62
2021/10/31 06:26:09;;;;;;;16.55;9.05;;;;;;;10.50;90.75;101916.02;1816746;77;21016;-59
2021/10/31 06:28:36;;;;;;;15.58;8.35;;;;;;;10.44;89.92;101908.05;1806351;77;21041;-58
2021/10/31 06:31:02;;;;;;;15.23;7.92;;;;;;;10.38;89.96;101916.17;1813953;77;21079;-57
2021/10/31 06:33:29;;;;;;;15.15;8.10;;;;;;;10.35;90.41;101890.75;1807715;77;21047;-57
2021/10/31 06:35:56;;;;;;;14.83;7.62;;;;;;;10.40;90.74;101899.60;1807137;77;21092;-62
2021/10/31 06:38:22;;;;;;;12.82;8.03;;;;;;;10.45;90.87;101891.05;1805550;77;20991;-63
2021/10/31 06:40:49;;;;;;;17.62;8.30;;;;;;;10.51;91.22;101890.98;1802383;77;21117;-62
2021/10/31 06:43:16;;;;;;;15.40;7.72;;;;;;;10.60;91.07;101902.88;1810642;77;21405;-62
2021/10/31 06:45:42;;;;;;;14.20;8.20;;;;;;;10.62;90.61;101888.12;1797090;77;21237;-63
2021/10/31 06:48:09;;;;;;;15.53;8.08;;;;;;;10.64;90.55;101892.09;1794853;78;21077;-64
2021/10/31 06:50:35;;;;;;;13.25;7.62;;;;;;;10.66;90.65;101883.56;1795363;79;21499;-67
2021/10/31 06:53:02;;;;;;;17.07;7.97;;;;;;;10.69;90.87;101886.19;1799312;78;20996;-62
2021/10/31 06:55:29;;;;;;;17.37;7.42;;;;;;;10.71;90.68;101882.58;1797596;78;21510;-62
2021/10/31 06:57:56;;;;;;;16.05;8.55;;;;;;;10.69;90.65;101876.80;1799216;78;21111;-62
2021/10/31 07:00:23;;;;;;;15.28;8.08;;;;;;;10.69;90.42;101890.21;1799414;77;21425;-62
2021/10/31 07:02:50;;;;;;;20.37;7.45;;;;;;;10.70;89.76;101881.25;1799492;77;21101;-62
2021/10/31 07:05:16;;;;;;;18.25;8.25;;;;;;;10.68;89.88;101899.17;1796656;78;21554;-63
2021/10/31 07:07:43;;;;;;;24.72;7.87;;;;;;;10.63;90.64;101883.18;1792944;78;21460;-63
2021/10/31 07:10:09;;;;;;;19.80;8.35;;;;;;;10.63;91.04;101884.97;1798823;78;21022;-62
2021/10/31 07:12:37;;;;;;;16.00;8.63;;;;;;;10.65;91.43;101875.09;1801372;77;21073;-63
2021/10/31 07:15:05;;;;;;;15.65;8.85;;;;;;;10.64;90.76;101883.61;1799508;79;20998;-63
2021/10/31 07:17:32;;;;;;;15.80;8.83;;;;;;;10.62;89.99;101872.47;1759259;79;21285;-63
2021/10/31 07:19:59;;;;;;;25.40;8.70;;;;;;;10.58;90.10;101908.73;1798167;79;21041;-63
2021/10/31 07:22:26;;;;;;;20.02;7.85;;;;;;;10.57;90.66;101873.87;1801597;78;21127;-64
2021/10/31 07:24:55;;;;;;;17.35;8.25;;;;;;;10.60;91.08;101876.50;1797612;78;21062;-64
2021/10/31 07:27:21;;;;;;;14.95;8.30;;;;;;;10.68;91.23;101866.55;1801511;79;20996;-66
2021/10/31 07:29:48;;;;;;;20.60;8.78;;;;;;;10.79;91.42;101883.79;1800213;78;21074;-65
2021/10/31 07:32:15;;;;;;;19.80;8.95;;;;;;;10.88;91.07;101882.75;1805375;77;20990;-63
2021/10/31 07:34:41;;;;;;;15.20;8.15;;;;;;;10.88;91.38;101882.27;1800865;77;21515;-63
2021/10/31 07:37:08;;;;;;;19.17;9.43;;;;;;;10.94;90.95;101896.48;1800521;78;21424;-64
2021/10/31 07:39:35;;;;;;;19.82;8.80;;;;;;;10.94;89.36;101881.72;1798056;78;21093;-65
2021/10/31 07:42:02;;;;;;;13.53;8.05;;;;;;;10.95;90.03;101886.20;1801273;78;21191;-65
2021/10/31 07:44:30;;;;;;;18.17;8.73;;;;;;;10.96;90.73;101886.63;1794954;77;21085;-63
2021/10/31 07:46:56;;;;;;;20.48;9.15;;;;;;;10.94;90.76;101892.02;1799685;77;21189;-65
2021/10/31 07:49:23;;;;;;;15.58;9.10;;;;;;;10.89;88.57;101904.16;1812397;77;20987;-63
2021/10/31 07:51:51;;;;;;;17.60;8.78;;;;;;;10.84;86.71;101873.85;1809971;77;21082;-62
2021/10/31 07:54:23;;;;;;;19.02;9.08;;;;;;;10.83;86.68;101866.72;1802156;77;21899;-63
2021/10/31 07:56:48;;;;;;;19.23;8.90;;;;;;;10.90;86.42;101859.45;1810702;77;21071;-64
2021/10/31 07:59:14;;;;;;;19.60;9.80;;;;;;;11.00;86.73;101861.50;1805584;77;21121;-61
2021/10/31 08:01:41;;;;;;;18.07;8.88;;;;;;;11.09;86.98;101870.70;1812414;77;21036;-62
2021/10/31 08:04:08;;;;;;;15.90;9.23;;;;;;;11.14;87.08;101865.27;1803136;77;21011;-63
2021/10/31 08:06:37;;;;;;;18.37;9.63;;;;;;;11.16;87.07;101858.06;1804644;77;21664;-62
2021/10/31 08:09:04;;;;;;;23.10;9.80;;;;;;;11.23;87.26;101856.14;1811858;77;21519;-63
2021/10/31 08:11:31;;;;;;;19.75;8.98;;;;;;;11.33;87.08;101863.08;1813814;77;21459;-62
2021/10/31 08:13:57;;;;;;;24.02;10.55;;;;;;;11.43;86.41;101876.77;1810606;77;21023;-56
2021/10/31 08:16:25;;;;;;;21.65;10.38;;;;;;;11.41;85.62;101865.17;1812593;77;21054;-57
2021/10/31 08:18:52;;;;;;;25.10;10.45;;;;;;;11.39;86.19;101867.01;1803302;77;21615;-58
2021/10/31 08:21:19;;;;;;;22.58;10.28;;;;;;;11.41;86.06;101854.88;1805362;77;21108;-56
2021/10/31 08:23:46;;;;;;;18.35;10.35;;;;;;;11.41;85.04;101858.46;1805238;77;21117;-57
2021/10/31 08:26:12;;;;;;;20.50;10.18;;;;;;;11.44;83.74;101852.12;1810121;77;21026;-58
2021/10/31 08:28:40;;;;;;;17.20;9.60;;;;;;;11.48;83.06;101851.61;1811374;77;21085;-55
2021/10/31 08:31:08;;;;;;;18.20;9.65;;;;;;;11.53;82.73;101842.55;1807059;77;21061;-56
2021/10/31 08:33:36;;;;;;;20.30;10.28;;;;;;;11.56;81.59;101846.94;1801710;77;21581;-56
2021/10/31 08:36:04;;;;;;;19.77;9.88;;;;;;;11.56;81.40;101853.66;1806957;77;21465;-56
2021/10/31 08:38:32;;;;;;;14.93;7.80;;;;;;;11.51;81.94;101839.45;1803796;77;21063;-56
2021/10/31 08:40:59;;;;;;;17.07;8.20;;;;;;;11.55;81.49;101850.11;1810140;77;21062;-57
2021/10/31 08:43:25;;;;;;;18.65;8.33;;;;;;;11.57;81.27;101861.70;1805316;77;21124;-58
2021/10/31 08:45:53;;;;;;;19.62;8.30;;;;;;;11.54;80.87;101842.06;1813768;77;21045;-56
2021/10/31 08:48:19;;;;;;;19.98;9.13;;;;;;;11.56;81.39;101837.55;1828256;77;21766;-59
2021/10/31 08:50:47;;;;;;;16.15;8.55;;;;;;;11.58;81.46;101849.14;1820352;77;21033;-56
2021/10/31 08:53:16;;;;;;;21.68;9.38;;;;;;;11.59;81.66;101833.44;1821431;77;21007;-58
2021/10/31 08:55:45;;;;;;;15.83;8.80;;;;;;;11.58;82.05;101842.42;1828787;77;20941;-55
2021/10/31 08:58:13;;;;;;;18.40;9.20;;;;;;;11.48;82.73;101827.44;1824361;77;21531;-57
2021/10/31 09:00:40;;;;;;;21.80;9.18;;;;;;;11.48;83.45;101832.81;1820603;77;21952;-57
2021/10/31 09:03:07;;;;;;;20.57;9.70;;;;;;;11.48;83.46;101823.41;1825546;77;21411;-56
2021/10/31 09:05:36;;;;;;;24.92;10.43;;;;;;;11.45;84.09;101824.34;1816623;77;21053;-57
2021/10/31 09:08:06;;;;;;;22.10;10.53;;;;;;;11.41;83.94;101826.23;1817327;77;21094;-56
2021/10/31 09:10:33;;;;;;;18.90;10.70;;;;;;;11.31;83.75;101817.48;1828217;76;21027;-57
2021/10/31 09:13:00;;;;;;;21.82;11.12;;;;;;;11.25;83.16;101816.72;1820999;76;21151;-57
2021/10/31 09:15:31;;;;;;;20.10;10.98;;;;;;;11.22;82.62;101822.16;1821979;77;21526;-56
2021/10/31 09:17:59;;;;;;;19.77;11.68;;;;;;;11.16;81.83;101820.48;1818535;77;21053;-57
2021/10/31 09:20:27;;;;;;;17.32;10.05;;;;;;;11.12;82.03;101813.41;1829569;77;21026;-62
2021/10/31 09:22:55;;;;;;;20.52;9.95;;;;;;;11.13;81.55;101812.02;1821202;77;21553;-62
2021/10/31 09:25:24;;;;;;;20.55;9.48;;;;;;;11.13;81.23;101807.99;1814512;77;21539;-63
2021/10/31 09:27:51;;;;;;;15.15;9.55;;;;;;;11.23;80.49;101802.45;1828525;77;21073;-62
2021/10/31 09:30:17;;;;;;;16.50;9.25;;;;;;;11.33;79.87;101802.67;1823446;77;21414;-63
2021/10/31 09:32:49;;;;;;;16.73;8.80;;;;;;;11.44;78.99;101789.91;1820390;77;21609;-64
2021/10/31 09:35:18;;;;;;;15.30;9.70;;;;;;;11.60;78.16;101797.60;1805456;78;21494;-63
2021/10/31 09:37:46;;;;;;;24.25;8.70;;;;;;;11.71;77.51;101802.29;1826241;77;21082;-63
2021/10/31 09:40:13;;;;;;;16.70;9.53;;;;;;;11.82;76.59;101803.38;1825178;77;20993;-57
2021/10/31 09:42:40;;;;;;;14.53;8.68;;;;;;;11.93;76.06;101799.09;1814266;77;20954;-57
2021/10/31 09:45:09;;;;;;;19.75;10.05;;;;;;;12.01;75.57;101802.50;1826641;77;21039;-62
2021/10/31 09:47:35;;;;;;;15.72;9.75;;;;;;;12.08;76.11;101801.04;1826559;77;21601;-62
2021/10/31 09:50:02;;;;;;;20.75;10.45;;;;;;;12.12;76.66;101798.69;1814861;76;21156;-62
2021/10/31 09:52:29;;;;;;;20.70;10.90;;;;;;;12.15;77.17;101801.30;1818920;77;20966;-57
2021/10/31 09:54:56;;;;;;;25.82;11.00;;;;;;;12.17;77.32;101796.77;1830692;77;20931;-64
2021/10/31 09:57:23;;;;;;;19.82;10.72;;;;;;;12.16;77.93;101792.31;1826091;77;21439;-62
2021/10/31 09:59:57;;;;;;;21.10;10.08;;;;;;;12.14;78.60;101786.95;1812379;77;21039;-63
2021/10/31 10:02:46;;;;;;;19.55;10.75;;;;;;;12.23;78.36;101793.05;1819102;77;21990;-58
2021/10/31 10:05:18;;;;;;;24.23;10.60;;;;;;;12.27;78.01;101786.22;1824838;77;21050;-56
2021/10/31 10:07:47;;;;;;;18.77;11.22;;;;;;;12.25;78.80;101786.69;1821399;77;21065;-56
2021/10/31 10:10:15;;;;;;;19.23;10.58;;;;;;;12.31;78.87;101783.86;1824396;77;21547;-57
2021/10/31 10:12:42;;;;;;;20.55;10.85;;;;;;;12.41;77.92;101779.58;1817520;77;21431;-63
2021/10/31 10:15:11;;;;;;;20.95;11.80;;;;;;;12.43;76.89;101772.34;1820561;77;21274;-63
2021/10/31 10:17:48;;;;;;;21.50;11.22;;;;;;;12.49;76.46;101777.59;1822142;77;21023;-63
2021/10/31 10:20:15;;;;;;;17.00;10.43;;;;;;;12.52;76.22;101770.77;1822299;77;21058;-56
2021/10/31 10:22:42;;;;;;;17.82;10.70;;;;;;;12.55;75.92;101769.34;1816823;77;20947;-57
2021/10/31 10:25:10;;;;;;;22.52;10.70;;;;;;;12.52;74.96;101770.77;1819347;77;21426;-57
2021/10/31 10:27:46;;;;;;;23.83;11.12;;;;;;;12.49;74.73;101769.52;1818426;77;21044;-57
2021/10/31 10:30:16;;;;;;;21.00;10.80;;;;;;;12.46;74.63;101766.88;1815560;77;20990;-63
2021/10/31 10:32:55;;;;;;;18.90;10.05;;;;;;;12.50;74.73;101760.97;1817035;76;21020;-63
2021/10/31 10:35:26;;;;;;;20.85;10.65;;;;;;;12.51;74.75;101761.39;1825931;77;21038;-62
2021/10/31 10:37:54;;;;;;;21.23;10.30;;;;;;;12.51;74.18;101761.39;1825395;76;21447;-62
2021/10/31 10:40:27;;;;;;;16.90;10.55;;;;;;;12.49;73.68;101760.10;1823130;76;21435;-63
2021/10/31 10:42:58;;;;;;;19.85;10.88;;;;;;;12.44;73.66;101748.56;1824009;77;21057;-57
2021/10/31 10:45:27;;;;;;;16.27;10.72;;;;;;;12.43;73.76;101746.34;1816785;77;21058;-57
2021/10/31 10:48:02;;;;;;;17.90;10.80;;;;;;;12.41;73.79;101745.95;1811393;77;21043;-57
2021/10/31 10:50:40;;;;;;;25.60;10.58;;;;;;;12.30;74.25;101743.11;1810967;77;26384;-57
2021/10/31 10:53:16;;;;;;;20.75;10.53;;;;;;;12.32;74.67;101738.56;1816674;77;21781;-63
2021/10/31 10:55:43;;;;;;;23.52;11.45;;;;;;;12.37;74.96;101737.08;1813375;77;21729;-63
2021/10/31 10:58:12;;;;;;;17.65;10.63;;;;;;;12.46;74.83;101738.19;1820083;77;21463;-63
2021/10/31 11:00:47;;;;;;;18.85;11.03;;;;;;;12.52;74.27;101739.84;1816138;77;21055;-57
2021/10/31 11:03:23;;;;;;;18.92;10.88;;;;;;;12.53;73.86;101728.60;1814365;77;21048;-57
2021/10/31 11:06:00;;;;;;;18.57;10.28;;;;;;;12.48;73.88;101732.75;1808388;77;22012;-56
2021/10/31 11:08:27;;;;;;;19.48;11.25;;;;;;;12.47;73.63;101730.98;1818545;77;21014;-56
2021/10/31 11:11:02;;;;;;;19.30;10.48;;;;;;;12.46;74.25;101726.53;1811696;77;21012;-56
2021/10/31 11:13:30;;;;;;;20.68;10.78;;;;;;;12.47;74.49;101729.64;1818270;77;21021;-56
2021/10/31 11:16:03;;;;;;;20.45;11.80;;;;;;;12.43;74.42;101725.28;1813083;77;21003;-56
2021/10/31 11:18:29;;;;;;;19.40;10.78;;;;;;;12.41;75.03;101730.72;1807125;77;21661;-57
2021/10/31 11:20:56;;;;;;;18.70;10.75;;;;;;;12.47;74.58;101736.37;1807119;77;21062;-57
2021/10/31 11:23:23;;;;;;;19.52;11.35;;;;;;;12.43;74.05;101729.31;1821695;77;21014;-56
2021/10/31 11:25:51;;;;;;;20.23;10.58;;;;;;;12.34;74.44;101723.72;1812802;77;21023;-56
2021/10/31 11:28:19;;;;;;;17.77;11.33;;;;;;;12.31;74.46;101726.05;1817609;77;21041;-58